Time;durP1;ratioP1;P1;durP2;ratioP2;P2;SDS_P1;SDS_P2;PMS_P1;PMS_P2;Temp;Humidity;BMP_temperature;BMP_pressure;BME280_temperature;BME280_humidity;BME280_pressure;Samples;Min_cycle;Max_cycle;Signal;HPM_P1;HPM_P2
2021/11/19 00:02:23;;;;;;;29.57;20.07;;;;;;;12.20;91.01;101771.50;5058494;28;20459;-72
2021/11/19 00:04:48;;;;;;;30.30;19.77;;;;;;;12.24;91.18;101770.72;5059047;28;20162;-73
2021/11/19 00:07:13;;;;;;;28.40;20.07;;;;;;;12.13;92.06;101760.06;5058465;28;20467;-73
2021/11/19 00:09:39;;;;;;;33.87;20.87;;;;;;;11.94;92.99;101749.22;5058629;28;20204;-74
2021/11/19 00:12:05;;;;;;;32.23;20.70;;;;;;;12.25;91.94;101754.19;5059057;28;20166;-74
2021/11/19 00:14:30;;;;;;;29.37;19.23;;;;;;;12.12;91.02;101759.19;5058491;28;20177;-72
2021/11/19 00:17:00;;;;;;;28.77;19.70;;;;;;;12.22;90.66;101751.53;5057798;28;20205;-72
2021/11/19 00:19:27;;;;;;;34.40;19.37;;;;;;;12.11;91.33;101754.78;5058548;28;20173;-74
2021/11/19 00:21:53;;;;;;;26.33;18.87;;;;;;;12.30;91.55;101748.19;5060203;28;20468;-72
2021/11/19 00:24:19;;;;;;;25.97;18.10;;;;;;;12.09;91.18;101753.00;5063117;28;20423;-75
2021/11/19 00:26:44;;;;;;;26.40;19.30;;;;;;;12.33;90.27;101749.13;5060587;28;20415;-73
2021/11/19 00:29:11;;;;;;;27.80;17.67;;;;;;;12.12;90.98;101758.28;5058680;28;20415;-72
2021/11/19 00:31:38;;;;;;;22.57;18.17;;;;;;;12.27;90.53;101755.06;5058138;28;20177;-72
2021/11/19 00:34:04;;;;;;;29.30;17.77;;;;;;;12.10;91.09;101753.03;5058568;28;20413;-71
2021/11/19 00:36:31;;;;;;;26.40;17.10;;;;;;;12.22;89.93;101754.13;5057708;28;20407;-73
2021/11/19 00:38:58;;;;;;;32.43;17.60;;;;;;;12.44;89.42;101752.78;5058369;28;20382;-73
2021/11/19 00:41:26;;;;;;;25.63;18.23;;;;;;;12.51;89.02;101769.47;5058540;28;20459;-73
2021/11/19 00:43:51;;;;;;;31.40;17.80;;;;;;;12.41;89.57;101776.28;5058053;28;20469;-72
2021/11/19 00:46:16;;;;;;;25.97;16.50;;;;;;;12.40;89.63;101770.16;5058046;28;20514;-73
2021/11/19 00:48:43;;;;;;;26.43;15.83;;;;;;;12.08;90.66;101773.03;5057489;28;20209;-72
2021/11/19 00:51:18;;;;;;;21.17;15.40;;;;;;;12.21;90.57;101783.75;5056540;28;20185;-74
2021/11/19 00:53:49;;;;;;;23.27;16.87;;;;;;;12.26;90.40;101777.75;5037940;28;20486;-72
2021/11/19 00:56:17;;;;;;;23.80;16.77;;;;;;;12.23;90.38;101787.25;5038131;28;20417;-73
2021/11/19 00:58:42;;;;;;;25.20;16.30;;;;;;;12.52;89.45;101784.31;5037684;28;20455;-74
2021/11/19 01:01:14;;;;;;;26.67;16.10;;;;;;;12.84;87.55;101791.84;5038112;28;20428;-74
2021/11/19 01:03:39;;;;;;;22.50;16.40;;;;;;;12.13;90.29;101797.50;5037996;28;20186;-71
2021/11/19 01:06:05;;;;;;;25.73;15.63;;;;;;;12.14;89.43;101798.41;5037788;28;20419;-71
2021/11/19 01:08:30;;;;;;;20.00;17.00;;;;;;;12.15;90.13;101804.50;5038183;28;20554;-70
2021/11/19 01:10:58;;;;;;;25.50;16.90;;;;;;;12.49;89.14;101795.63;5037772;28;20171;-71
2021/11/19 01:13:24;;;;;;;26.40;16.77;;;;;;;12.07;90.65;101804.34;5037795;28;20185;-72
2021/11/19 01:15:55;;;;;;;21.87;15.60;;;;;;;12.41;88.72;101812.91;5038328;28;20412;-74
2021/11/19 01:18:24;;;;;;;21.30;13.97;;;;;;;12.59;88.58;101813.22;5037952;28;20396;-74
2021/11/19 01:21:16;;;;;;;20.70;14.43;;;;;;;12.46;89.21;101819.97;5020723;28;20445;-75
2021/11/19 01:23:42;;;;;;;24.47;14.50;;;;;;;12.29;89.65;101813.53;5020822;28;20429;-73
2021/11/19 01:26:13;;;;;;;30.83;15.80;;;;;;;12.16;90.16;101816.75;5037678;28;20495;-73
2021/11/19 01:28:40;;;;;;;16.70;12.97;;;;;;;13.63;84.96;101815.81;5037474;28;20519;-61
2021/11/19 01:31:13;;;;;;;17.90;11.13;;;;;;;13.75;82.44;101799.41;5037627;28;20431;-62
2021/11/19 01:33:40;;;;;;;17.00;12.70;;;;;;;12.79;85.73;101810.09;5020632;28;20425;-71
2021/11/19 01:36:05;;;;;;;14.13;12.50;;;;;;;12.67;87.03;101810.75;5037626;28;20482;-71
2021/11/19 01:38:31;;;;;;;20.73;13.60;;;;;;;12.40;88.00;101814.59;5038144;28;20405;-71
2021/11/19 01:41:00;;;;;;;21.10;13.30;;;;;;;12.85;87.65;101804.94;5039874;28;20595;-71
2021/11/19 01:43:26;;;;;;;17.20;13.27;;;;;;;12.76;87.27;101808.31;5041313;28;20457;-72
2021/11/19 01:45:56;;;;;;;21.53;14.00;;;;;;;12.71;87.59;101796.88;5041859;28;20493;-71
2021/11/19 01:48:39;;;;;;;18.13;14.07;;;;;;;12.29;89.16;101798.72;5041389;28;20418;-72
2021/11/19 01:51:32;;;;;;;20.43;13.50;;;;;;;12.29;89.68;101796.09;5023950;28;20460;-71
2021/11/19 01:54:05;;;;;;;19.57;14.00;;;;;;;12.24;88.96;101804.69;4996324;28;20786;-70
2021/11/19 01:56:44;;;;;;;19.13;13.67;;;;;;;12.23;89.68;101802.94;5041244;28;20469;-71
2021/11/19 01:59:18;;;;;;;19.17;12.70;;;;;;;12.53;88.31;101800.03;5023904;28;20411;-72
2021/11/19 02:01:50;;;;;;;16.17;13.10;;;;;;;12.36;88.85;101802.31;5023668;28;20740;-70
2021/11/19 02:04:23;;;;;;;14.80;13.00;;;;;;;12.19;89.59;101807.25;5041168;28;20425;-70
2021/11/19 02:06:53;;;;;;;19.67;12.30;;;;;;;12.30;87.99;101808.31;5041091;28;20714;-71
2021/11/19 02:09:36;;;;;;;22.73;13.23;;;;;;;12.64;86.97;101805.47;5023756;28;20392;-71
2021/11/19 02:12:12;;;;;;;18.83;12.70;;;;;;;12.45;88.52;101814.72;5023773;28;20471;-71
2021/11/19 02:14:54;;;;;;;22.30;13.33;;;;;;;12.51;88.34;101808.72;5023711;28;20394;-70
2021/11/19 02:17:20;;;;;;;20.50;12.80;;;;;;;12.68;88.15;101809.91;5023955;28;20689;-71
2021/11/19 02:19:49;;;;;;;13.10;11.70;;;;;;;12.40;88.63;101804.16;5040681;28;20424;-70
2021/11/19 02:22:26;;;;;;;16.73;12.60;;;;;;;12.55;87.85;101807.91;5023309;28;20202;-70
2021/11/19 02:25:04;;;;;;;20.37;12.63;;;;;;;12.66;87.65;101808.97;5023303;28;20445;-71
2021/11/19 02:27:50;;;;;;;19.70;13.03;;;;;;;12.61;87.07;101810.63;5040448;28;20801;-71
2021/11/19 02:30:19;;;;;;;16.50;13.30;;;;;;;12.67;87.46;101809.88;5006987;28;20470;-71
2021/11/19 02:32:48;;;;;;;20.00;13.27;;;;;;;12.34;88.30;101806.66;5040426;28;20409;-71
2021/11/19 02:35:22;;;;;;;17.43;12.93;;;;;;;13.01;86.29;101800.88;5040382;28;20770;-70
2021/11/19 02:37:51;;;;;;;15.60;13.10;;;;;;;13.00;85.80;101801.72;5040375;28;20413;-71
2021/11/19 02:40:23;;;;;;;16.00;11.40;;;;;;;12.51;87.76;101806.09;5040449;28;20424;-71
2021/11/19 02:42:53;;;;;;;18.50;12.50;;;;;;;12.79;86.70;101810.97;5040300;28;20429;-71
2021/11/19 02:45:26;;;;;;;19.53;13.23;;;;;;;12.57;87.68;101811.41;5040305;28;20447;-71
2021/11/19 02:47:52;;;;;;;19.43;13.60;;;;;;;12.56;88.51;101812.31;5040156;28;20429;-70
2021/11/19 02:50:19;;;;;;;23.33;12.60;;;;;;;13.02;85.78;101813.09;5040101;28;20421;-70
2021/11/19 02:52:46;;;;;;;15.10;12.30;;;;;;;12.64;87.07;101813.31;5039729;28;20225;-70
2021/11/19 02:55:19;;;;;;;16.30;12.27;;;;;;;12.58;87.06;101811.47;5023346;28;20501;-69
2021/11/19 02:57:46;;;;;;;19.40;12.60;;;;;;;12.38;88.41;101813.72;5039928;28;20409;-71
2021/11/19 03:00:19;;;;;;;16.90;12.53;;;;;;;12.63;87.26;101814.16;5039813;28;20464;-71
2021/11/19 03:02:45;;;;;;;19.67;12.50;;;;;;;12.45;87.97;101818.19;5039866;28;20438;-71
2021/11/19 03:05:15;;;;;;;15.17;11.70;;;;;;;12.51;87.09;101819.19;5039917;28;20417;-71
2021/11/19 03:07:40;;;;;;;19.73;12.80;;;;;;;12.73;86.54;101815.22;5023095;28;20197;-71
2021/11/19 03:10:19;;;;;;;16.53;13.10;;;;;;;12.58;87.72;101815.81;5039793;28;20413;-70
2021/11/19 03:12:45;;;;;;;18.93;12.27;;;;;;;12.73;87.08;101813.50;5039628;28;20205;-71
2021/11/19 03:15:14;;;;;;;17.17;12.70;;;;;;;12.81;86.50;101808.38;5039641;28;20684;-71
2021/11/19 03:17:39;;;;;;;18.90;12.33;;;;;;;12.55;86.60;101813.16;5039764;28;20170;-71
2021/11/19 03:20:06;;;;;;;16.27;12.00;;;;;;;12.56;86.97;101817.53;5040202;28;20431;-71
2021/11/19 03:22:32;;;;;;;16.27;11.37;;;;;;;12.40;87.95;101822.44;5039279;28;20202;-71
2021/11/19 03:24:57;;;;;;;14.77;10.40;;;;;;;12.65;87.39;101822.94;5039406;28;20403;-71
2021/11/19 03:27:24;;;;;;;21.00;10.63;;;;;;;12.94;85.25;101818.19;5040118;28;20185;-71
2021/11/19 03:29:50;;;;;;;19.03;10.93;;;;;;;12.82;85.54;101824.97;5039431;28;20189;-72
2021/11/19 03:32:19;;;;;;;15.80;10.87;;;;;;;12.75;86.09;101830.09;5039422;28;20392;-71
2021/11/19 03:34:44;;;;;;;18.40;11.73;;;;;;;12.77;86.27;101827.50;5039743;28;20413;-71
2021/11/19 03:37:10;;;;;;;20.83;11.63;;;;;;;12.92;85.00;101824.25;5022057;28;20427;-71
2021/11/19 03:39:37;;;;;;;15.70;10.30;;;;;;;12.69;86.73;101824.75;5021948;28;20201;-70
2021/11/19 03:42:10;;;;;;;16.30;10.33;;;;;;;12.57;86.93;101829.72;5039752;28;20288;-71
2021/11/19 03:44:42;;;;;;;17.97;9.93;;;;;;;12.51;86.58;101827.03;5022567;28;20417;-71
2021/11/19 03:47:13;;;;;;;13.73;10.33;;;;;;;12.78;86.15;101819.66;5038981;28;20400;-71
2021/11/19 03:49:39;;;;;;;13.87;9.87;;;;;;;13.21;83.41;101818.66;5021788;28;20455;-70
2021/11/19 03:52:09;;;;;;;16.10;9.83;;;;;;;12.80;84.81;101828.44;5038683;28;20545;-70
2021/11/19 03:54:36;;;;;;;17.83;10.50;;;;;;;13.13;84.13;101829.88;5039027;28;20395;-70
2021/11/19 03:57:03;;;;;;;16.30;10.83;;;;;;;12.77;85.34;101828.41;5039037;28;20424;-71
2021/11/19 03:59:28;;;;;;;12.80;10.63;;;;;;;12.81;85.39;101829.31;5039149;28;20429;-71
2021/11/19 04:01:55;;;;;;;23.00;10.67;;;;;;;12.49;86.52;101826.09;5038635;28;20492;-70
2021/11/19 04:04:23;;;;;;;16.87;10.17;;;;;;;12.95;84.85;101824.34;5038363;28;20190;-71
2021/11/19 04:06:49;;;;;;;17.80;10.23;;;;;;;12.63;85.93;101824.63;5039102;28;20416;-71
2021/11/19 04:09:14;;;;;;;16.07;9.80;;;;;;;12.98;84.75;101821.75;5038686;28;20450;-71
2021/11/19 04:11:40;;;;;;;19.03;10.43;;;;;;;12.72;86.07;101829.13;5038494;28;20171;-71
2021/11/19 04:14:06;;;;;;;12.17;9.40;;;;;;;12.45;86.44;101835.63;5039078;28;20174;-71
2021/11/19 04:16:41;;;;;;;10.93;9.43;;;;;;;12.86;85.10;101834.66;5038651;28;20420;-71
2021/11/19 04:19:08;;;;;;;13.20;9.97;;;;;;;12.61;85.81;101847.25;5038535;28;20209;-72
2021/11/19 04:21:34;;;;;;;14.93;10.07;;;;;;;12.86;84.94;101835.50;5038167;28;20465;-71
2021/11/19 04:24:00;;;;;;;12.93;9.40;;;;;;;12.64;85.07;101847.34;5038442;28;20427;-71
2021/11/19 04:26:27;;;;;;;15.60;10.13;;;;;;;12.92;84.60;101843.47;5038770;28;20413;-71
2021/11/19 04:28:53;;;;;;;21.70;10.00;;;;;;;12.74;85.06;101843.16;5038448;28;20417;-71
2021/11/19 04:31:19;;;;;;;22.67;15.97;;;;;;;12.94;83.64;101843.50;5038328;28;20399;-71
2021/11/19 04:33:46;;;;;;;19.27;13.87;;;;;;;12.89;84.26;101843.41;5021819;28;20409;-72
2021/11/19 04:36:11;;;;;;;22.10;12.50;;;;;;;12.84;84.78;101855.56;5038357;28;20413;-71
2021/11/19 04:38:36;;;;;;;11.43;9.10;;;;;;;12.88;83.86;101851.25;5021272;28;20403;-71
2021/11/19 04:41:03;;;;;;;15.13;9.87;;;;;;;12.34;86.03;101858.97;5021312;28;20247;-70
2021/11/19 04:43:29;;;;;;;16.77;10.27;;;;;;;12.67;85.14;101864.81;5021137;28;20170;-70
2021/11/19 04:45:55;;;;;;;17.40;11.47;;;;;;;12.98;83.94;101864.50;5038064;28;20433;-70
2021/11/19 04:48:22;;;;;;;17.80;10.77;;;;;;;12.84;84.21;101859.88;5038593;28;20440;-70
2021/11/19 04:50:49;;;;;;;17.80;11.47;;;;;;;12.66;84.63;101863.91;5038030;28;20412;-71
2021/11/19 04:53:16;;;;;;;10.70;9.60;;;;;;;12.95;83.63;101861.84;5037784;28;20499;-71
2021/11/19 04:55:43;;;;;;;14.60;10.40;;;;;;;12.71;84.64;101869.25;5038351;28;20392;-71
2021/11/19 04:58:08;;;;;;;18.33;11.60;;;;;;;13.16;83.33;101862.19;5037887;28;20432;-71
2021/11/19 05:00:42;;;;;;;14.53;10.50;;;;;;;12.63;85.35;101866.50;5037963;28;20413;-72
2021/11/19 05:03:08;;;;;;;17.43;11.00;;;;;;;12.76;85.41;101876.34;5038339;28;20550;-71
2021/11/19 05:05:35;;;;;;;20.80;11.27;;;;;;;12.89;84.04;101863.47;5020453;28;20508;-70
2021/11/19 05:08:00;;;;;;;17.00;10.60;;;;;;;13.10;83.66;101860.38;5037656;28;20440;-70
2021/11/19 05:10:26;;;;;;;15.50;11.50;;;;;;;12.99;83.78;101868.03;5038192;28;20413;-70
2021/11/19 05:12:54;;;;;;;17.30;12.90;;;;;;;12.50;86.50;101864.47;5037467;28;20185;-71
2021/11/19 05:15:20;;;;;;;18.80;10.63;;;;;;;12.74;85.75;101870.19;5039310;28;20175;-72
2021/11/19 05:17:46;;;;;;;15.33;10.77;;;;;;;12.73;84.92;101864.91;5042948;28;20684;-72
2021/11/19 05:20:14;;;;;;;15.37;11.33;;;;;;;12.49;86.21;101862.72;5041729;28;20417;-71
2021/11/19 05:22:40;;;;;;;16.33;10.57;;;;;;;12.48;86.89;101866.19;5041337;28;20866;-72
2021/11/19 05:25:06;;;;;;;14.27;10.70;;;;;;;12.50;86.82;101856.63;5024707;28;20412;-71
2021/11/19 05:27:32;;;;;;;20.13;12.30;;;;;;;12.89;84.76;101859.13;5041471;28;20171;-72
2021/11/19 05:29:57;;;;;;;21.17;10.77;;;;;;;12.62;86.04;101864.72;5041542;28;20870;-72
2021/11/19 05:32:23;;;;;;;18.40;11.90;;;;;;;12.37;86.69;101859.00;5041499;28;20169;-72
2021/11/19 05:34:48;;;;;;;15.93;10.47;;;;;;;12.53;86.32;101851.47;5041282;28;20174;-72
2021/11/19 05:37:14;;;;;;;16.53;10.90;;;;;;;12.84;85.71;101855.56;5041265;28;20220;-74
2021/11/19 05:39:39;;;;;;;19.30;10.57;;;;;;;12.45;86.97;101857.44;5041663;28;20181;-73
2021/11/19 05:42:06;;;;;;;18.60;10.40;;;;;;;12.38;87.30;101850.31;5040975;28;20217;-73
2021/11/19 05:44:34;;;;;;;19.53;10.60;;;;;;;12.72;86.60;101853.59;5041009;28;20532;-72
2021/11/19 05:47:01;;;;;;;19.37;10.97;;;;;;;12.41;87.26;101849.50;5041735;28;20737;-72
2021/11/19 05:49:26;;;;;;;13.87;9.80;;;;;;;12.43;87.31;101856.53;5041030;28;20421;-74
2021/11/19 05:51:54;;;;;;;15.83;11.00;;;;;;;12.58;86.93;101852.44;5034136;28;20486;-73
2021/11/19 05:54:21;;;;;;;17.53;10.27;;;;;;;12.53;86.92;101851.47;5061297;28;20307;-72
2021/11/19 05:56:47;;;;;;;13.40;10.53;;;;;;;12.67;86.59;101857.84;5060208;28;20416;-73
2021/11/19 05:59:13;;;;;;;17.23;10.00;;;;;;;12.94;85.80;101852.22;5060141;28;20442;-73
2021/11/19 06:01:38;;;;;;;16.57;10.70;;;;;;;12.66;86.27;101853.47;5061401;28;20440;-72
2021/11/19 06:04:04;;;;;;;14.73;10.43;;;;;;;12.60;86.58;101850.75;5060409;28;20389;-72
2021/11/19 06:06:30;;;;;;;13.93;9.93;;;;;;;12.59;86.60;101844.59;5061057;28;20185;-76
2021/11/19 06:08:57;;;;;;;16.80;10.30;;;;;;;12.38;87.29;101854.66;5061273;28;20166;-73
2021/11/19 06:11:47;;;;;;;20.60;10.40;;;;;;;12.46;87.53;101847.84;5060883;28;20260;-73
2021/11/19 06:14:16;;;;;;;17.20;10.20;;;;;;;12.60;87.03;101854.22;5060073;28;20412;-73
2021/11/19 06:16:48;;;;;;;15.70;10.53;;;;;;;12.55;87.20;101857.63;5060069;28;20421;-71
2021/11/19 06:19:18;;;;;;;16.43;10.33;;;;;;;12.87;86.23;101860.84;5060201;28;20462;-71
2021/11/19 06:21:48;;;;;;;23.27;10.00;;;;;;;12.53;88.09;101873.28;5059770;28;20566;-72
2021/11/19 06:24:16;;;;;;;13.60;9.40;;;;;;;12.53;86.90;101869.75;5060600;28;20412;-72
2021/11/19 06:26:43;;;;;;;14.93;9.47;;;;;;;12.65;86.69;101864.81;5060335;28;20382;-72
2021/11/19 06:29:09;;;;;;;15.23;9.57;;;;;;;12.46;87.96;101879.22;5059859;28;20415;-73
2021/11/19 06:31:38;;;;;;;18.67;10.77;;;;;;;12.64;86.64;101874.38;5060553;28;20450;-72
2021/11/19 06:34:06;;;;;;;19.90;11.83;;;;;;;12.87;85.63;101883.53;5060498;28;20490;-71
2021/11/19 06:36:31;;;;;;;13.97;10.30;;;;;;;12.78;85.64;101876.38;5059629;28;20447;-73
2021/11/19 06:38:58;;;;;;;21.03;10.87;;;;;;;12.70;86.69;101878.81;5060831;28;20509;-73
2021/11/19 06:41:24;;;;;;;20.13;10.57;;;;;;;12.63;86.42;101882.19;5059328;28;20201;-72
2021/11/19 06:43:49;;;;;;;14.00;9.40;;;;;;;12.65;86.42;101877.88;5060197;28;20775;-71
2021/11/19 06:46:16;;;;;;;14.33;10.10;;;;;;;12.55;87.33;101891.63;5060886;28;20177;-73
2021/11/19 06:48:42;;;;;;;15.00;9.33;;;;;;;12.79;86.33;101889.47;5059342;28;20265;-72
2021/11/19 06:51:07;;;;;;;16.10;11.30;;;;;;;12.60;86.90;101884.75;5058849;28;20448;-71
2021/11/19 06:53:34;;;;;;;15.20;9.87;;;;;;;12.93;85.59;101881.00;5023284;28;20543;-72
2021/11/19 06:56:00;;;;;;;16.00;9.93;;;;;;;12.60;86.41;101880.38;5022644;28;20214;-73
2021/11/19 06:58:26;;;;;;;14.50;10.00;;;;;;;12.84;85.85;101880.81;5039689;28;20451;-73
2021/11/19 07:00:53;;;;;;;13.90;9.50;;;;;;;12.78;85.30;101874.63;5040266;28;20236;-74
2021/11/19 07:03:19;;;;;;;14.00;10.27;;;;;;;12.82;85.64;101885.16;5022631;28;20413;-73
2021/11/19 07:05:45;;;;;;;16.80;9.37;;;;;;;12.84;85.52;101886.97;5039614;28;20516;-72
2021/11/19 07:08:11;;;;;;;15.70;10.67;;;;;;;12.72;85.94;101889.31;5040268;28;20456;-72
2021/11/19 07:10:38;;;;;;;14.80;10.37;;;;;;;12.82;85.01;101893.88;5039713;28;20417;-71
2021/11/19 07:13:04;;;;;;;15.50;10.40;;;;;;;13.07;84.17;101890.00;5039660;28;20417;-72
2021/11/19 07:15:30;;;;;;;16.23;9.70;;;;;;;13.17;83.45;101892.78;5040303;28;20646;-72
2021/11/19 07:17:56;;;;;;;16.10;9.43;;;;;;;12.91;84.17;101895.81;5039844;28;20425;-71
2021/11/19 07:20:23;;;;;;;14.70;9.53;;;;;;;12.76;85.70;101896.41;5039622;28;20815;-72
2021/11/19 07:22:48;;;;;;;12.13;8.83;;;;;;;12.82;84.44;101900.88;5039644;28;20505;-73
2021/11/19 07:25:16;;;;;;;17.60;10.13;;;;;;;12.99;84.51;101904.69;5039542;28;20417;-71
2021/11/19 07:27:44;;;;;;;12.57;8.80;;;;;;;12.65;85.52;101906.66;5039980;28;20524;-72
2021/11/19 07:30:13;;;;;;;15.30;9.57;;;;;;;12.88;84.30;101900.97;5039982;28;20500;-72
2021/11/19 07:32:39;;;;;;;14.03;8.40;;;;;;;13.17;82.49;101911.97;5039170;28;20424;-72
2021/11/19 07:35:05;;;;;;;15.20;8.57;;;;;;;13.13;83.19;101910.16;5039296;28;20432;-71
2021/11/19 07:37:31;;;;;;;15.33;9.20;;;;;;;13.13;83.52;101911.03;5038641;28;20543;-72
2021/11/19 07:39:58;;;;;;;13.07;8.30;;;;;;;12.75;84.22;101919.06;5039196;28;20424;-71
2021/11/19 07:42:23;;;;;;;12.33;8.60;;;;;;;13.10;82.67;101920.59;5039024;28;20213;-72
2021/11/19 07:44:49;;;;;;;13.13;8.03;;;;;;;12.83;84.13;101915.69;5039712;28;20396;-71
2021/11/19 07:47:14;;;;;;;12.00;8.30;;;;;;;12.90;84.24;101915.84;5038948;28;20181;-72
2021/11/19 07:49:39;;;;;;;16.17;8.33;;;;;;;13.25;82.56;101912.13;5038843;28;20175;-72
2021/11/19 07:52:05;;;;;;;24.00;10.93;;;;;;;13.00;83.82;101918.63;5039267;28;20569;-73
2021/11/19 07:54:31;;;;;;;14.37;7.83;;;;;;;12.90;84.26;101918.47;5021660;28;20256;-72
2021/11/19 07:56:56;;;;;;;12.43;8.77;;;;;;;13.11;83.98;101910.13;5039021;28;20216;-71
2021/11/19 07:59:28;;;;;;;14.97;8.90;;;;;;;12.68;85.06;101916.28;5038773;28;20197;-72
2021/11/19 08:01:57;;;;;;;12.53;8.50;;;;;;;13.00;84.13;101919.50;5038612;28;20221;-71
2021/11/19 08:04:22;;;;;;;11.60;9.50;;;;;;;12.77;84.40;101917.38;5038634;28;20471;-71
2021/11/19 08:06:48;;;;;;;10.57;7.93;;;;;;;12.87;83.91;101913.19;5021584;28;20516;-72
2021/11/19 08:09:14;;;;;;;16.97;8.60;;;;;;;12.89;84.31;101916.69;5038936;28;20449;-72
2021/11/19 08:11:39;;;;;;;12.60;9.47;;;;;;;13.00;83.79;101913.41;5021257;28;20256;-72
2021/11/19 08:14:05;;;;;;;10.80;8.97;;;;;;;13.14;83.51;101912.81;5038652;28;20472;-72
2021/11/19 08:16:44;;;;;;;17.63;8.63;;;;;;;13.06;83.44;101922.25;5039072;28;20193;-71
2021/11/19 08:19:18;;;;;;;16.70;9.60;;;;;;;12.89;83.92;101921.06;5038770;28;20434;-72
2021/11/19 08:21:43;;;;;;;10.77;8.00;;;;;;;12.83;83.93;101920.91;5021251;28;20456;-72
2021/11/19 08:24:11;;;;;;;19.73;11.13;;;;;;;13.01;84.36;101925.66;5038464;28;20417;-71
2021/11/19 08:26:43;;;;;;;13.30;8.70;;;;;;;12.89;84.30;101915.81;5038463;28;20181;-72
2021/11/19 08:29:12;;;;;;;11.90;8.80;;;;;;;13.24;82.60;101910.34;5038616;28;20436;-71
2021/11/19 08:31:38;;;;;;;11.87;9.40;;;;;;;13.22;82.87;101933.00;5038096;28;20811;-72
2021/11/19 08:34:04;;;;;;;14.47;9.27;;;;;;;13.43;81.87;101924.66;5038254;28;20407;-72
2021/11/19 08:36:30;;;;;;;17.80;8.80;;;;;;;13.47;81.92;101929.97;5038798;28;20405;-72
2021/11/19 08:38:56;;;;;;;12.20;8.80;;;;;;;13.17;83.35;101924.19;5038125;28;20487;-72
2021/11/19 08:41:21;;;;;;;14.10;7.87;;;;;;;13.25;81.89;101919.97;5038174;28;20210;-72
2021/11/19 08:43:50;;;;;;;17.70;8.00;;;;;;;13.32;82.85;101924.44;5021491;28;20257;-73
2021/11/19 08:46:22;;;;;;;13.10;8.03;;;;;;;13.47;82.08;101921.25;5038306;28;20240;-72
2021/11/19 08:48:49;;;;;;;17.97;9.17;;;;;;;13.04;83.18;101930.94;5037721;28;20395;-73
2021/11/19 08:51:19;;;;;;;12.40;8.43;;;;;;;12.91;83.65;101920.22;5037679;28;20402;-72
2021/11/19 08:53:46;;;;;;;16.40;8.80;;;;;;;13.24;82.89;101920.81;5037980;28;20825;-72
2021/11/19 08:56:11;;;;;;;10.57;8.23;;;;;;;13.09;83.35;101924.91;5038529;28;20496;-71
2021/11/19 08:58:40;;;;;;;14.37;9.23;;;;;;;12.92;84.61;101931.56;5038063;28;20408;-71
2021/11/19 09:01:06;;;;;;;14.40;9.47;;;;;;;12.91;83.62;101938.56;5037859;28;20202;-71
2021/11/19 09:03:32;;;;;;;20.03;9.80;;;;;;;13.22;83.19;101930.38;5038412;28;20384;-71
2021/11/19 09:05:57;;;;;;;13.20;9.47;;;;;;;13.44;82.75;101931.69;5037677;28;20495;-72
2021/11/19 09:08:25;;;;;;;11.77;8.70;;;;;;;13.08;83.57;101938.88;5037871;28;20413;-71
2021/11/19 09:10:53;;;;;;;9.20;8.13;;;;;;;12.80;84.54;101933.13;5021229;28;20166;-72
2021/11/19 09:13:19;;;;;;;19.97;10.50;;;;;;;13.24;83.11;101928.69;5036526;28;20444;-72
2021/11/19 09:15:45;;;;;;;11.10;9.07;;;;;;;13.21;83.79;101944.34;5020432;28;20413;-71
2021/11/19 09:18:17;;;;;;;14.50;8.90;;;;;;;12.78;85.46;101947.88;5021391;28;20445;-70
2021/11/19 09:21:10;;;;;;;15.90;9.07;;;;;;;12.86;84.48;101941.94;5037519;28;20270;-70
2021/11/19 09:23:40;;;;;;;12.47;9.40;;;;;;;13.27;82.81;101934.88;5037633;28;20423;-69
2021/11/19 09:26:10;;;;;;;16.97;10.67;;;;;;;13.02;84.01;101944.00;5020491;28;20420;-69
2021/11/19 09:28:39;;;;;;;14.13;10.30;;;;;;;13.64;81.49;101943.38;5020445;28;20436;-69
2021/11/19 09:31:06;;;;;;;16.27;9.23;;;;;;;13.39;82.65;101944.69;5020449;28;20417;-73
2021/11/19 09:33:32;;;;;;;16.73;10.60;;;;;;;13.01;83.36;101951.81;5037815;28;20444;-73
2021/11/19 09:35:58;;;;;;;10.33;9.17;;;;;;;13.01;84.08;101955.31;5038030;28;20409;-74
2021/11/19 09:38:25;;;;;;;11.57;9.10;;;;;;;12.77;84.37;101954.00;5037588;28;20599;-73
2021/11/19 09:41:01;;;;;;;11.87;9.70;;;;;;;13.33;82.89;101955.03;5037530;28;20170;-69
2021/11/19 09:43:56;;;;;;;10.50;8.63;;;;;;;13.01;83.61;101957.94;5037738;28;20399;-70
2021/11/19 09:46:56;;;;;;;9.90;8.93;;;;;;;13.25;82.84;101956.63;5020406;28;20713;-70
2021/11/19 09:49:40;;;;;;;11.60;9.97;;;;;;;13.14;83.33;101957.31;5039158;28;20459;-71
2021/11/19 09:52:52;;;;;;;10.40;9.30;;;;;;;13.14;83.03;101951.22;5037550;28;20456;-72
2021/11/19 09:55:40;;;;;;;14.93;9.23;;;;;;;13.30;81.96;101957.56;5038040;28;20413;-72
2021/11/19 09:58:31;;;;;;;11.30;9.90;;;;;;;13.22;82.95;101952.22;5020440;28;20402;-70
2021/11/19 10:01:35;;;;;;;9.93;8.80;;;;;;;13.18;82.89;101953.03;5038138;28;20468;-71
2021/11/19 10:04:18;;;;;;;11.20;9.33;;;;;;;13.02;83.40;101944.00;5018350;28;20482;-70
2021/11/19 10:07:00;;;;;;;9.57;8.57;;;;;;;13.14;82.98;101940.72;5041093;28;20425;-71
2021/11/19 10:09:32;;;;;;;11.40;9.00;;;;;;;13.20;82.69;101953.91;5041029;28;20511;-71
2021/11/19 10:12:20;;;;;;;16.13;9.70;;;;;;;13.55;81.29;101945.84;5040799;28;20427;-71
2021/11/19 10:14:58;;;;;;;10.17;8.00;;;;;;;13.42;81.30;101938.63;5041178;28;20453;-71
2021/11/19 10:17:51;;;;;;;9.43;8.30;;;;;;;13.34;80.98;101941.09;5023938;28;20391;-71
2021/11/19 10:20:19;;;;;;;12.63;8.93;;;;;;;13.38;82.06;101945.56;5023524;28;20504;-71
2021/11/19 10:22:57;;;;;;;11.63;7.80;;;;;;;13.50;80.21;101944.88;5040445;28;20479;-70
2021/11/19 10:25:46;;;;;;;12.63;9.10;;;;;;;13.33;81.25;101936.69;5023945;28;20470;-70
2021/11/19 10:28:18;;;;;;;10.00;8.63;;;;;;;13.77;79.59;101933.97;5023587;28;20471;-70
2021/11/19 10:30:48;;;;;;;10.60;8.23;;;;;;;13.29;81.19;101933.13;5040623;28;20475;-73
2021/11/19 10:33:26;;;;;;;9.27;8.23;;;;;;;13.44;80.11;101927.31;5023459;28;20409;-73
2021/11/19 10:36:00;;;;;;;10.70;7.93;;;;;;;13.54;80.14;101924.84;5023206;28;20484;-72
2021/11/19 10:38:44;;;;;;;8.90;7.80;;;;;;;13.43;80.31;101930.78;5023360;28;20467;-71
2021/11/19 10:41:43;;;;;;;10.40;8.00;;;;;;;13.39;80.98;101939.44;5040288;28;20457;-70
2021/11/19 10:44:27;;;;;;;10.63;7.43;;;;;;;13.55;79.71;101932.72;5040370;28;20418;-71
2021/11/19 10:47:04;;;;;;;11.90;8.00;;;;;;;13.58;80.19;101945.88;5040536;28;20409;-71
2021/11/19 10:49:49;;;;;;;10.13;7.30;;;;;;;13.31;80.55;101943.63;5040704;28;20416;-71
2021/11/19 10:52:48;;;;;;;10.23;7.47;;;;;;;13.77;78.79;101936.59;5040548;28;20536;-70
2021/11/19 10:55:38;;;;;;;9.63;8.10;;;;;;;13.41;79.64;101936.84;5024231;28;20428;-69
2021/11/19 10:58:09;;;;;;;8.93;7.23;;;;;;;13.35;79.84;101931.47;5024479;28;20834;-71
2021/11/19 11:00:59;;;;;;;10.10;7.40;;;;;;;13.62;79.48;101946.81;5040593;28;20430;-71
2021/11/19 11:03:32;;;;;;;9.50;7.60;;;;;;;13.52;79.61;101930.06;5040406;28;20432;-70
2021/11/19 11:06:03;;;;;;;9.30;7.57;;;;;;;13.71;79.21;101941.72;5040194;28;20760;-70
2021/11/19 11:08:31;;;;;;;9.33;6.90;;;;;;;13.26;80.57;101940.03;5040173;28;20499;-70
2021/11/19 11:10:59;;;;;;;8.93;7.03;;;;;;;13.52;80.46;101939.66;5040122;28;20423;-70
2021/11/19 11:13:41;;;;;;;11.10;8.60;;;;;;;14.00;78.50;101943.03;5044660;28;20417;-71
2021/11/19 11:16:24;;;;;;;12.30;7.83;;;;;;;13.28;80.66;101940.97;5046116;28;20435;-71
2021/11/19 11:19:09;;;;;;;11.53;8.43;;;;;;;13.48;79.60;101943.97;5028430;28;20517;-70
2021/11/19 11:21:55;;;;;;;11.47;8.10;;;;;;;13.43;80.27;101936.03;5046025;28;20472;-70
2021/11/19 11:24:28;;;;;;;12.53;9.93;;;;;;;13.50;80.00;101939.63;5041299;28;20428;-71
2021/11/19 11:27:01;;;;;;;17.23;8.60;;;;;;;13.51;79.82;101945.78;5039730;28;20432;-71